sensor_id;sensor_type;location;lat;lon;timestamp;pressure;altitude;pressure_sealevel;temperature;humidity
15674;BME280;7937;48.090;16.212;2023-04-26T00:02:38;97468.22;;;6.60;76.76
15674;BME280;7937;48.090;16.212;2023-04-26T00:05:41;97467.03;;;6.56;77.05
15674;BME280;7937;48.090;16.212;2023-04-26T00:08:43;97458.19;;;6.62;76.27
15674;BME280;7937;48.090;16.212;2023-04-26T00:11:45;97468.25;;;6.54;77.33
15674;BME280;7937;48.090;16.212;2023-04-26T00:14:48;97463.72;;;6.61;76.11
15674;BME280;7937;48.090;16.212;2023-04-26T00:17:50;97462.78;;;6.55;75.88
15674;BME280;7937;48.090;16.212;2023-04-26T00:20:52;97467.97;;;6.43;76.50
15674;BME280;7937;48.090;16.212;2023-04-26T00:23:55;97469.38;;;6.46;76.03
15674;BME280;7937;48.090;16.212;2023-04-26T00:26:57;97467.31;;;6.48;75.71
15674;BME280;7937;48.090;16.212;2023-04-26T00:29:59;97466.28;;;6.49;75.48
15674;BME280;7937;48.090;16.212;2023-04-26T00:33:02;97462.81;;;6.67;74.71
15674;BME280;7937;48.090;16.212;2023-04-26T00:36:04;97464.91;;;6.46;75.41
15674;BME280;7937;48.090;16.212;2023-04-26T00:39:07;97469.53;;;6.51;75.33
15674;BME280;7937;48.090;16.212;2023-04-26T00:42:09;97454.22;;;6.35;75.42
15674;BME280;7937;48.090;16.212;2023-04-26T00:45:12;97467.03;;;6.38;75.83
15674;BME280;7937;48.090;16.212;2023-04-26T00:48:14;97475.75;;;6.38;75.45
15674;BME280;7937;48.090;16.212;2023-04-26T00:51:17;97477.59;;;6.38;76.27
15674;BME280;7937;48.090;16.212;2023-04-26T00:54:20;97484.72;;;6.37;75.80
15674;BME280;7937;48.090;16.212;2023-04-26T00:57:22;97483.13;;;6.36;76.19
15674;BME280;7937;48.090;16.212;2023-04-26T01:04:59;97486.78;;;6.35;75.85
15674;BME280;7937;48.090;16.212;2023-04-26T01:08:01;97480.66;;;6.35;74.27
15674;BME280;7937;48.090;16.212;2023-04-26T01:11:05;97470.31;;;6.33;74.00
15674;BME280;7937;48.090;16.212;2023-04-26T01:14:09;97469.78;;;6.25;73.99
15674;BME280;7937;48.090;16.212;2023-04-26T01:17:12;97484.78;;;6.12;74.41
15674;BME280;7937;48.090;16.212;2023-04-26T01:20:15;97479.34;;;6.07;73.70
15674;BME280;7937;48.090;16.212;2023-04-26T01:23:17;97488.00;;;5.96;74.15
15674;BME280;7937;48.090;16.212;2023-04-26T01:26:19;97501.28;;;5.83;74.73
15674;BME280;7937;48.090;16.212;2023-04-26T01:29:21;97502.34;;;5.75;75.11
15674;BME280;7937;48.090;16.212;2023-04-26T01:32:25;97504.88;;;5.63;75.79
15674;BME280;7937;48.090;16.212;2023-04-26T01:35:31;97508.25;;;5.70;74.83
15674;BME280;7937;48.090;16.212;2023-04-26T01:38:34;97514.34;;;5.71;74.87
15674;BME280;7937;48.090;16.212;2023-04-26T01:41:36;97519.81;;;5.76;74.79
15674;BME280;7937;48.090;16.212;2023-04-26T01:44:39;97517.59;;;5.73;74.56
15674;BME280;7937;48.090;16.212;2023-04-26T01:47:41;97516.34;;;5.76;74.55
15674;BME280;7937;48.090;16.212;2023-04-26T01:50:43;97508.44;;;5.76;75.21
15674;BME280;7937;48.090;16.212;2023-04-26T01:53:47;97512.72;;;5.77;74.67
15674;BME280;7937;48.090;16.212;2023-04-26T01:56:49;97510.50;;;5.74;74.90
15674;BME280;7937;48.090;16.212;2023-04-26T01:59:51;97518.41;;;5.74;74.77
15674;BME280;7937;48.090;16.212;2023-04-26T02:02:55;97511.69;;;5.78;72.48
15674;BME280;7937;48.090;16.212;2023-04-26T02:05:58;97488.53;;;5.73;70.43
15674;BME280;7937;48.090;16.212;2023-04-26T02:09:05;97510.25;;;5.75;71.05
15674;BME280;7937;48.090;16.212;2023-04-26T02:12:07;97514.41;;;5.64;71.52
15674;BME280;7937;48.090;16.212;2023-04-26T02:15:09;97511.91;;;5.44;72.49
15674;BME280;7937;48.090;16.212;2023-04-26T02:18:12;97507.50;;;5.32;73.12
15674;BME280;7937;48.090;16.212;2023-04-26T02:21:18;97509.22;;;5.20;73.30
15674;BME280;7937;48.090;16.212;2023-04-26T02:24:20;97497.13;;;4.99;73.66
15674;BME280;7937;48.090;16.212;2023-04-26T02:27:24;97515.97;;;5.02;72.94
15674;BME280;7937;48.090;16.212;2023-04-26T02:30:28;97520.31;;;4.90;73.78
15674;BME280;7937;48.090;16.212;2023-04-26T02:33:31;97519.75;;;4.75;74.54
15674;BME280;7937;48.090;16.212;2023-04-26T02:36:34;97506.38;;;4.63;75.03
15674;BME280;7937;48.090;16.212;2023-04-26T02:39:36;97519.81;;;4.48;75.89
15674;BME280;7937;48.090;16.212;2023-04-26T02:42:38;97520.91;;;4.34;76.63
15674;BME280;7937;48.090;16.212;2023-04-26T02:45:41;97517.25;;;4.22;76.85
15674;BME280;7937;48.090;16.212;2023-04-26T02:48:46;97511.19;;;4.14;77.28
15674;BME280;7937;48.090;16.212;2023-04-26T02:51:48;97518.06;;;4.02;78.24
15674;BME280;7937;48.090;16.212;2023-04-26T02:54:50;97520.50;;;3.97;78.56
15674;BME280;7937;48.090;16.212;2023-04-26T02:57:52;97514.63;;;3.88;78.19
15674;BME280;7937;48.090;16.212;2023-04-26T03:00:56;97520.09;;;4.07;75.76
15674;BME280;7937;48.090;16.212;2023-04-26T03:04:02;97480.97;;;3.84;76.47
15674;BME280;7937;48.090;16.212;2023-04-26T03:07:07;97516.47;;;3.95;76.73
15674;BME280;7937;48.090;16.212;2023-04-26T03:10:09;97520.91;;;3.87;77.20
15674;BME280;7937;48.090;16.212;2023-04-26T03:13:13;97518.28;;;3.81;78.21
15674;BME280;7937;48.090;16.212;2023-04-26T03:16:18;97518.50;;;3.66;78.29
15674;BME280;7937;48.090;16.212;2023-04-26T03:19:21;97523.94;;;3.58;78.73
15674;BME280;7937;48.090;16.212;2023-04-26T03:22:23;97523.34;;;3.56;78.17
15674;BME280;7937;48.090;16.212;2023-04-26T03:25:25;97524.16;;;3.56;77.86
15674;BME280;7937;48.090;16.212;2023-04-26T03:28:28;97530.44;;;3.62;76.97
15674;BME280;7937;48.090;16.212;2023-04-26T03:31:30;97525.97;;;3.62;77.84
15674;BME280;7937;48.090;16.212;2023-04-26T03:34:32;97528.19;;;3.59;77.82
15674;BME280;7937;48.090;16.212;2023-04-26T03:37:35;97523.34;;;3.56;78.07
15674;BME280;7937;48.090;16.212;2023-04-26T03:40:42;97538.94;;;3.57;76.23
15674;BME280;7937;48.090;16.212;2023-04-26T03:43:44;97538.97;;;3.77;74.73
15674;BME280;7937;48.090;16.212;2023-04-26T03:46:46;97552.13;;;3.97;71.90
15674;BME280;7937;48.090;16.212;2023-04-26T03:49:49;97540.97;;;4.35;69.28
15674;BME280;7937;48.090;16.212;2023-04-26T03:52:51;97540.31;;;4.53;68.20
15674;BME280;7937;48.090;16.212;2023-04-26T03:55:54;97544.78;;;4.59;66.72
15674;BME280;7937;48.090;16.212;2023-04-26T03:58:56;97539.28;;;4.60;67.17
15674;BME280;7937;48.090;16.212;2023-04-26T04:02:00;97543.38;;;4.50;67.11
15674;BME280;7937;48.090;16.212;2023-04-26T04:05:02;97558.59;;;4.48;68.39
15674;BME280;7937;48.090;16.212;2023-04-26T04:08:05;97551.31;;;4.36;69.22
15674;BME280;7937;48.090;16.212;2023-04-26T04:11:08;97558.00;;;4.26;70.60
15674;BME280;7937;48.090;16.212;2023-04-26T04:14:12;97567.94;;;4.17;71.57
15674;BME280;7937;48.090;16.212;2023-04-26T04:17:14;97563.09;;;4.07;71.46
15674;BME280;7937;48.090;16.212;2023-04-26T04:20:18;97576.28;;;4.01;72.76
15674;BME280;7937;48.090;16.212;2023-04-26T04:23:22;97572.41;;;3.97;73.21
15674;BME280;7937;48.090;16.212;2023-04-26T04:26:24;97580.53;;;3.95;71.36
15674;BME280;7937;48.090;16.212;2023-04-26T04:29:26;97574.44;;;4.28;68.89
15674;BME280;7937;48.090;16.212;2023-04-26T04:32:30;97569.38;;;4.20;70.10
15674;BME280;7937;48.090;16.212;2023-04-26T04:35:34;97589.47;;;4.14;71.69
15674;BME280;7937;48.090;16.212;2023-04-26T04:38:39;97584.38;;;4.06;72.53
15674;BME280;7937;48.090;16.212;2023-04-26T04:41:42;97589.06;;;4.10;71.94
15674;BME280;7937;48.090;16.212;2023-04-26T04:44:53;97583.78;;;4.10;73.18
15674;BME280;7937;48.090;16.212;2023-04-26T04:47:56;97589.47;;;4.14;72.80
15674;BME280;7937;48.090;16.212;2023-04-26T04:51:00;97589.66;;;4.19;72.75
15674;BME280;7937;48.090;16.212;2023-04-26T04:54:16;97590.47;;;4.26;72.61
15674;BME280;7937;48.090;16.212;2023-04-26T04:57:21;97598.56;;;4.51;70.80
15674;BME280;7937;48.090;16.212;2023-04-26T05:00:23;97587.00;;;4.59;70.69
15674;BME280;7937;48.090;16.212;2023-04-26T05:03:33;97589.59;;;4.65;70.18
15674;BME280;7937;48.090;16.212;2023-04-26T05:06:37;97597.75;;;4.64;71.02
15674;BME280;7937;48.090;16.212;2023-04-26T05:09:39;97609.50;;;4.61;71.51
15674;BME280;7937;48.090;16.212;2023-04-26T05:12:41;97598.94;;;4.68;70.13
15674;BME280;7937;48.090;16.212;2023-04-26T05:15:44;97597.28;;;4.80;69.75
15674;BME280;7937;48.090;16.212;2023-04-26T05:18:47;97606.59;;;4.96;67.72
15674;BME280;7937;48.090;16.212;2023-04-26T05:21:50;97607.19;;;4.98;68.57
15674;BME280;7937;48.090;16.212;2023-04-26T05:24:53;97604.13;;;5.01;68.43
15674;BME280;7937;48.090;16.212;2023-04-26T05:27:56;97614.44;;;5.16;66.30
15674;BME280;7937;48.090;16.212;2023-04-26T05:31:11;97609.03;;;5.49;63.81
15674;BME280;7937;48.090;16.212;2023-04-26T05:34:32;97618.56;;;5.50;63.76
15674;BME280;7937;48.090;16.212;2023-04-26T05:37:35;97624.47;;;5.46;64.37
15674;BME280;7937;48.090;16.212;2023-04-26T05:40:37;97638.09;;;5.49;62.70
15674;BME280;7937;48.090;16.212;2023-04-26T05:43:39;97630.47;;;5.66;61.99
15674;BME280;7937;48.090;16.212;2023-04-26T05:46:44;97625.28;;;5.84;60.10
15674;BME280;7937;48.090;16.212;2023-04-26T05:49:48;97640.56;;;5.82;59.98
15674;BME280;7937;48.090;16.212;2023-04-26T05:52:50;97634.66;;;5.80;59.79
15674;BME280;7937;48.090;16.212;2023-04-26T05:55:53;97648.94;;;5.73;61.21
15674;BME280;7937;48.090;16.212;2023-04-26T05:58:57;97649.88;;;5.85;59.74
15674;BME280;7937;48.090;16.212;2023-04-26T06:01:59;97650.25;;;6.02;60.05
15674;BME280;7937;48.090;16.212;2023-04-26T06:05:03;97655.78;;;5.87;60.76
15674;BME280;7937;48.090;16.212;2023-04-26T06:08:08;97658.38;;;6.00;58.53
15674;BME280;7937;48.090;16.212;2023-04-26T06:11:10;97657.53;;;6.06;60.87
15674;BME280;7937;48.090;16.212;2023-04-26T06:14:12;97670.38;;;6.03;59.86
15674;BME280;7937;48.090;16.212;2023-04-26T06:17:31;97630.94;;;5.94;58.55
15674;BME280;7937;48.090;16.212;2023-04-26T06:20:33;97678.72;;;6.31;56.78
15674;BME280;7937;48.090;16.212;2023-04-26T06:23:36;97676.75;;;6.52;55.38
15674;BME280;7937;48.090;16.212;2023-04-26T06:26:38;97673.06;;;6.78;54.94
15674;BME280;7937;48.090;16.212;2023-04-26T06:29:40;97677.38;;;6.97;52.69
15674;BME280;7937;48.090;16.212;2023-04-26T06:32:45;97678.13;;;7.22;52.63
15674;BME280;7937;48.090;16.212;2023-04-26T06:35:48;97675.91;;;7.38;51.47
15674;BME280;7937;48.090;16.212;2023-04-26T06:38:50;97676.00;;;7.49;51.76
15674;BME280;7937;48.090;16.212;2023-04-26T06:41:53;97692.16;;;7.78;50.58
15674;BME280;7937;48.090;16.212;2023-04-26T06:45:15;97687.59;;;7.67;51.26
15674;BME280;7937;48.090;16.212;2023-04-26T06:48:19;97692.91;;;7.67;50.81
15674;BME280;7937;48.090;16.212;2023-04-26T06:51:21;97689.44;;;7.66;51.79
15674;BME280;7937;48.090;16.212;2023-04-26T06:54:28;97698.59;;;7.52;51.75
15674;BME280;7937;48.090;16.212;2023-04-26T06:57:30;97694.31;;;7.51;52.93
15674;BME280;7937;48.090;16.212;2023-04-26T07:00:33;97692.19;;;7.60;51.14
15674;BME280;7937;48.090;16.212;2023-04-26T07:03:35;97697.13;;;7.56;52.97
15674;BME280;7937;48.090;16.212;2023-04-26T07:06:38;97700.28;;;7.65;53.08
15674;BME280;7937;48.090;16.212;2023-04-26T07:09:42;97692.63;;;7.75;51.68
15674;BME280;7937;48.090;16.212;2023-04-26T07:12:44;97706.25;;;7.60;51.22
15674;BME280;7937;48.090;16.212;2023-04-26T07:15:46;97696.94;;;7.88;50.93
15674;BME280;7937;48.090;16.212;2023-04-26T07:18:49;97702.31;;;7.81;50.60
15674;BME280;7937;48.090;16.212;2023-04-26T07:21:51;97702.63;;;7.73;51.92
15674;BME280;7937;48.090;16.212;2023-04-26T07:24:54;97701.94;;;7.78;52.60
15674;BME280;7937;48.090;16.212;2023-04-26T07:27:56;97709.47;;;7.81;51.12
15674;BME280;7937;48.090;16.212;2023-04-26T07:30:59;97704.59;;;7.96;50.18
15674;BME280;7937;48.090;16.212;2023-04-26T07:34:02;97712.09;;;7.99;50.32
15674;BME280;7937;48.090;16.212;2023-04-26T07:37:05;97712.13;;;7.81;51.09
15674;BME280;7937;48.090;16.212;2023-04-26T07:40:10;97712.13;;;7.62;51.37
15674;BME280;7937;48.090;16.212;2023-04-26T07:43:13;97715.38;;;7.46;53.31
15674;BME280;7937;48.090;16.212;2023-04-26T07:46:16;97718.19;;;7.51;52.40
15674;BME280;7937;48.090;16.212;2023-04-26T07:49:19;97717.81;;;7.66;53.14
15674;BME280;7937;48.090;16.212;2023-04-26T07:52:21;97683.47;;;7.89;53.30
15674;BME280;7937;48.090;16.212;2023-04-26T07:55:24;97714.59;;;8.42;52.33
15674;BME280;7937;48.090;16.212;2023-04-26T07:58:27;97717.72;;;8.51;51.21
15674;BME280;7937;48.090;16.212;2023-04-26T08:01:31;97722.81;;;8.52;51.04
15674;BME280;7937;48.090;16.212;2023-04-26T08:04:33;97708.63;;;8.59;50.07
15674;BME280;7937;48.090;16.212;2023-04-26T08:07:35;97717.81;;;8.44;50.51
15674;BME280;7937;48.090;16.212;2023-04-26T08:10:40;97714.50;;;8.19;50.63
15674;BME280;7937;48.090;16.212;2023-04-26T08:13:44;97696.66;;;8.08;50.40
15674;BME280;7937;48.090;16.212;2023-04-26T08:16:46;97698.31;;;8.09;51.27
15674;BME280;7937;48.090;16.212;2023-04-26T08:19:49;97693.81;;;8.21;50.55
15674;BME280;7937;48.090;16.212;2023-04-26T08:22:58;97689.81;;;8.18;48.95
15674;BME280;7937;48.090;16.212;2023-04-26T08:26:01;97697.56;;;8.32;50.96
15674;BME280;7937;48.090;16.212;2023-04-26T08:29:03;97684.03;;;8.63;51.17
15674;BME280;7937;48.090;16.212;2023-04-26T08:32:06;97686.00;;;9.15;48.31
15674;BME280;7937;48.090;16.212;2023-04-26T08:35:08;97705.66;;;9.25;45.45
15674;BME280;7937;48.090;16.212;2023-04-26T08:38:11;97702.50;;;9.52;44.31
15674;BME280;7937;48.090;16.212;2023-04-26T08:41:15;97700.41;;;9.54;43.04
15674;BME280;7937;48.090;16.212;2023-04-26T08:44:23;97690.63;;;9.43;42.81
15674;BME280;7937;48.090;16.212;2023-04-26T08:47:43;97709.69;;;9.40;43.31
15674;BME280;7937;48.090;16.212;2023-04-26T08:50:49;97706.47;;;9.38;42.73
15674;BME280;7937;48.090;16.212;2023-04-26T08:53:54;97703.59;;;8.92;43.67
15674;BME280;7937;48.090;16.212;2023-04-26T08:56:58;97715.69;;;8.76;43.15
15674;BME280;7937;48.090;16.212;2023-04-26T09:00:05;97717.50;;;8.52;45.09
15674;BME280;7937;48.090;16.212;2023-04-26T09:03:11;97703.47;;;8.34;46.78
15674;BME280;7937;48.090;16.212;2023-04-26T09:06:14;97729.38;;;8.50;43.55
15674;BME280;7937;48.090;16.212;2023-04-26T09:09:20;97725.91;;;8.49;44.42
15674;BME280;7937;48.090;16.212;2023-04-26T09:12:24;97712.91;;;8.60;43.52
15674;BME280;7937;48.090;16.212;2023-04-26T09:15:27;97714.19;;;8.69;43.07
15674;BME280;7937;48.090;16.212;2023-04-26T09:18:30;97712.56;;;8.79;44.59
15674;BME280;7937;48.090;16.212;2023-04-26T09:21:41;97706.38;;;8.97;45.89
15674;BME280;7937;48.090;16.212;2023-04-26T09:24:49;97697.56;;;9.20;44.57
15674;BME280;7937;48.090;16.212;2023-04-26T09:27:53;97695.19;;;9.71;43.69
15674;BME280;7937;48.090;16.212;2023-04-26T09:30:55;97696.78;;;10.12;41.32
15674;BME280;7937;48.090;16.212;2023-04-26T09:33:58;97692.59;;;10.16;40.55
15674;BME280;7937;48.090;16.212;2023-04-26T09:37:01;97706.88;;;9.98;41.38
15674;BME280;7937;48.090;16.212;2023-04-26T09:40:16;97696.66;;;9.78;40.99
15674;BME280;7937;48.090;16.212;2023-04-26T09:43:21;97690.06;;;9.81;42.45
15674;BME280;7937;48.090;16.212;2023-04-26T09:46:23;97690.16;;;9.86;41.85
15674;BME280;7937;48.090;16.212;2023-04-26T09:49:29;97676.13;;;9.62;41.81
15674;BME280;7937;48.090;16.212;2023-04-26T09:52:41;97691.88;;;9.52;45.19
15674;BME280;7937;48.090;16.212;2023-04-26T09:55:46;97689.91;;;9.47;41.87
15674;BME280;7937;48.090;16.212;2023-04-26T09:58:56;97693.03;;;9.44;41.43
15674;BME280;7937;48.090;16.212;2023-04-26T10:02:03;97680.44;;;9.51;40.33
15674;BME280;7937;48.090;16.212;2023-04-26T10:05:07;97695.47;;;9.34;40.48
15674;BME280;7937;48.090;16.212;2023-04-26T10:08:10;97684.97;;;9.04;41.56
15674;BME280;7937;48.090;16.212;2023-04-26T10:11:13;97690.28;;;9.04;42.31
15674;BME280;7937;48.090;16.212;2023-04-26T10:14:16;97692.38;;;9.02;42.48
15674;BME280;7937;48.090;16.212;2023-04-26T10:17:19;97694.59;;;9.17;42.36
15674;BME280;7937;48.090;16.212;2023-04-26T10:20:27;97684.06;;;8.98;43.31
15674;BME280;7937;48.090;16.212;2023-04-26T10:23:30;97685.09;;;8.97;42.50
15674;BME280;7937;48.090;16.212;2023-04-26T10:26:53;97684.75;;;9.05;41.94
15674;BME280;7937;48.090;16.212;2023-04-26T10:36:08;97668.06;;;9.45;43.01
15674;BME280;7937;48.090;16.212;2023-04-26T10:39:17;97681.06;;;9.70;43.28
15674;BME280;7937;48.090;16.212;2023-04-26T10:42:27;97680.44;;;9.51;43.80
15674;BME280;7937;48.090;16.212;2023-04-26T10:45:31;97703.22;;;9.36;42.17
15674;BME280;7937;48.090;16.212;2023-04-26T10:48:35;97680.25;;;8.94;45.13
15674;BME280;7937;48.090;16.212;2023-04-26T10:51:38;97679.19;;;9.19;44.77
15674;BME280;7937;48.090;16.212;2023-04-26T10:54:47;97654.66;;;9.52;42.25
15674;BME280;7937;48.090;16.212;2023-04-26T10:57:53;97676.50;;;9.82;42.45
15674;BME280;7937;48.090;16.212;2023-04-26T11:01:16;97665.69;;;9.72;41.66
15674;BME280;7937;48.090;16.212;2023-04-26T11:04:20;97665.22;;;9.75;43.08
15674;BME280;7937;48.090;16.212;2023-04-26T11:07:36;97666.53;;;9.90;39.87
15674;BME280;7937;48.090;16.212;2023-04-26T11:10:40;97661.53;;;9.65;40.12
15674;BME280;7937;48.090;16.212;2023-04-26T11:13:43;97648.09;;;9.71;40.17
15674;BME280;7937;48.090;16.212;2023-04-26T11:16:45;97650.91;;;9.93;41.03
15674;BME280;7937;48.090;16.212;2023-04-26T11:19:48;97660.84;;;9.98;43.49
15674;BME280;7937;48.090;16.212;2023-04-26T11:22:50;97656.06;;;10.00;40.78
15674;BME280;7937;48.090;16.212;2023-04-26T11:26:05;97661.53;;;10.22;41.44
15674;BME280;7937;48.090;16.212;2023-04-26T11:29:09;97681.47;;;9.91;41.00
15674;BME280;7937;48.090;16.212;2023-04-26T11:32:19;97678.28;;;9.77;40.66
15674;BME280;7937;48.090;16.212;2023-04-26T11:35:22;97675.97;;;9.69;40.35
15674;BME280;7937;48.090;16.212;2023-04-26T11:38:27;97673.91;;;9.59;40.53
15674;BME280;7937;48.090;16.212;2023-04-26T11:41:31;97683.75;;;9.59;41.39
15674;BME280;7937;48.090;16.212;2023-04-26T11:44:34;97689.81;;;9.42;43.46
15674;BME280;7937;48.090;16.212;2023-04-26T11:47:37;97682.03;;;9.41;44.17
15674;BME280;7937;48.090;16.212;2023-04-26T11:50:40;97677.88;;;9.56;43.24
15674;BME280;7937;48.090;16.212;2023-04-26T11:53:43;97672.94;;;9.77;45.18
15674;BME280;7937;48.090;16.212;2023-04-26T11:56:47;97673.06;;;9.82;42.74
15674;BME280;7937;48.090;16.212;2023-04-26T11:59:49;97662.84;;;9.91;45.01
15674;BME280;7937;48.090;16.212;2023-04-26T12:02:52;97665.81;;;9.94;42.22
15674;BME280;7937;48.090;16.212;2023-04-26T12:05:55;97675.16;;;9.68;43.34
15674;BME280;7937;48.090;16.212;2023-04-26T12:09:00;97688.53;;;9.33;44.38
15674;BME280;7937;48.090;16.212;2023-04-26T12:12:06;97692.25;;;8.85;47.64
15674;BME280;7937;48.090;16.212;2023-04-26T12:15:10;97689.44;;;8.57;48.90
15674;BME280;7937;48.090;16.212;2023-04-26T12:18:48;97671.69;;;8.69;48.85
15674;BME280;7937;48.090;16.212;2023-04-26T12:21:53;97679.56;;;8.87;48.95
15674;BME280;7937;48.090;16.212;2023-04-26T12:25:05;97688.34;;;8.99;50.71
15674;BME280;7937;48.090;16.212;2023-04-26T12:28:10;97690.88;;;9.06;46.94
15674;BME280;7937;48.090;16.212;2023-04-26T12:31:16;97702.06;;;8.96;48.17
15674;BME280;7937;48.090;16.212;2023-04-26T12:34:18;97696.06;;;9.01;46.64
15674;BME280;7937;48.090;16.212;2023-04-26T12:37:21;97701.16;;;8.91;49.48
15674;BME280;7937;48.090;16.212;2023-04-26T12:40:23;97674.66;;;8.49;50.90
15674;BME280;7937;48.090;16.212;2023-04-26T12:43:26;97700.66;;;8.59;52.15
15674;BME280;7937;48.090;16.212;2023-04-26T12:46:29;97699.50;;;8.55;54.61
15674;BME280;7937;48.090;16.212;2023-04-26T12:49:32;97687.69;;;8.39;53.79
15674;BME280;7937;48.090;16.212;2023-04-26T12:52:35;97691.75;;;8.53;56.49
15674;BME280;7937;48.090;16.212;2023-04-26T12:55:38;97685.31;;;8.84;55.91
15674;BME280;7937;48.090;16.212;2023-04-26T12:58:40;97674.13;;;9.17;56.71
15674;BME280;7937;48.090;16.212;2023-04-26T13:01:43;97675.34;;;9.38;54.71
15674;BME280;7937;48.090;16.212;2023-04-26T13:04:46;97680.94;;;9.65;51.22
15674;BME280;7937;48.090;16.212;2023-04-26T13:07:48;97674.56;;;9.78;48.94
15674;BME280;7937;48.090;16.212;2023-04-26T13:10:52;97677.72;;;9.63;49.02
15674;BME280;7937;48.090;16.212;2023-04-26T13:13:54;97668.50;;;9.54;49.32
15674;BME280;7937;48.090;16.212;2023-04-26T13:16:56;97677.28;;;9.54;49.62
15674;BME280;7937;48.090;16.212;2023-04-26T13:19:59;97691.03;;;9.63;48.72
15674;BME280;7937;48.090;16.212;2023-04-26T13:23:02;97685.19;;;9.38;50.41
15674;BME280;7937;48.090;16.212;2023-04-26T13:26:06;97659.81;;;9.07;51.60
15674;BME280;7937;48.090;16.212;2023-04-26T13:29:08;97693.31;;;9.31;49.88
15674;BME280;7937;48.090;16.212;2023-04-26T13:32:11;97684.25;;;9.44;47.87
15674;BME280;7937;48.090;16.212;2023-04-26T13:35:14;97673.28;;;9.28;48.44
15674;BME280;7937;48.090;16.212;2023-04-26T13:38:16;97689.69;;;9.37;46.37
15674;BME280;7937;48.090;16.212;2023-04-26T13:41:19;97695.84;;;9.14;48.11
15674;BME280;7937;48.090;16.212;2023-04-26T13:44:25;97707.41;;;9.08;49.35
15674;BME280;7937;48.090;16.212;2023-04-26T13:47:35;97687.63;;;9.16;50.17
15674;BME280;7937;48.090;16.212;2023-04-26T13:50:43;97694.13;;;9.08;52.92
15674;BME280;7937;48.090;16.212;2023-04-26T13:53:46;97698.38;;;9.21;54.41
15674;BME280;7937;48.090;16.212;2023-04-26T13:56:48;97683.63;;;9.65;50.33
15674;BME280;7937;48.090;16.212;2023-04-26T13:59:50;97672.41;;;9.63;49.87
15674;BME280;7937;48.090;16.212;2023-04-26T14:02:53;97606.53;;;9.53;49.22
15674;BME280;7937;48.090;16.212;2023-04-26T14:05:55;97681.25;;;10.09;48.75
15674;BME280;7937;48.090;16.212;2023-04-26T14:08:57;97670.06;;;10.07;47.81
15674;BME280;7937;48.090;16.212;2023-04-26T14:11:59;97667.50;;;10.12;46.02
15674;BME280;7937;48.090;16.212;2023-04-26T14:15:08;97671.28;;;10.16;45.27
15674;BME280;7937;48.090;16.212;2023-04-26T14:18:10;97669.50;;;10.05;44.74
15674;BME280;7937;48.090;16.212;2023-04-26T14:21:13;97675.38;;;10.07;46.00
15674;BME280;7937;48.090;16.212;2023-04-26T14:24:15;97664.97;;;10.05;43.49
15674;BME280;7937;48.090;16.212;2023-04-26T14:27:18;97665.25;;;9.92;44.76
15674;BME280;7937;48.090;16.212;2023-04-26T14:30:21;97668.47;;;9.94;43.76
15674;BME280;7937;48.090;16.212;2023-04-26T14:33:25;97664.25;;;9.81;47.05
15674;BME280;7937;48.090;16.212;2023-04-26T14:36:27;97679.00;;;10.01;43.77
15674;BME280;7937;48.090;16.212;2023-04-26T14:39:30;97677.66;;;9.87;45.19
15674;BME280;7937;48.090;16.212;2023-04-26T14:42:32;97672.91;;;9.89;46.76
15674;BME280;7937;48.090;16.212;2023-04-26T14:45:35;97676.22;;;9.67;47.12
15674;BME280;7937;48.090;16.212;2023-04-26T14:48:45;97669.59;;;9.70;47.22
15674;BME280;7937;48.090;16.212;2023-04-26T14:51:47;97676.84;;;9.86;45.24
15674;BME280;7937;48.090;16.212;2023-04-26T14:54:53;97666.59;;;9.78;45.63
15674;BME280;7937;48.090;16.212;2023-04-26T14:57:55;97665.50;;;9.91;43.93
15674;BME280;7937;48.090;16.212;2023-04-26T15:00:58;97659.41;;;9.78;46.04
15674;BME280;7937;48.090;16.212;2023-04-26T15:04:00;97669.41;;;9.71;45.24
15674;BME280;7937;48.090;16.212;2023-04-26T15:07:03;97668.34;;;9.72;45.23
15674;BME280;7937;48.090;16.212;2023-04-26T15:10:06;97670.75;;;9.74;45.18
15674;BME280;7937;48.090;16.212;2023-04-26T15:13:11;97667.88;;;9.75;45.58
15674;BME280;7937;48.090;16.212;2023-04-26T15:16:14;97672.72;;;9.78;44.69
15674;BME280;7937;48.090;16.212;2023-04-26T15:19:18;97676.63;;;9.88;44.68
15674;BME280;7937;48.090;16.212;2023-04-26T15:22:24;97668.28;;;9.84;44.12
15674;BME280;7937;48.090;16.212;2023-04-26T15:25:27;97664.47;;;9.80;45.08
15674;BME280;7937;48.090;16.212;2023-04-26T15:28:30;97676.19;;;10.07;43.49
15674;BME280;7937;48.090;16.212;2023-04-26T15:31:33;97666.59;;;10.06;45.15
15674;BME280;7937;48.090;16.212;2023-04-26T15:34:40;97671.41;;;10.09;45.22
15674;BME280;7937;48.090;16.212;2023-04-26T15:37:46;97675.72;;;10.11;43.57
15674;BME280;7937;48.090;16.212;2023-04-26T15:40:49;97664.91;;;9.89;43.67
15674;BME280;7937;48.090;16.212;2023-04-26T15:43:57;97668.47;;;9.94;43.42
15674;BME280;7937;48.090;16.212;2023-04-26T15:47:01;97667.97;;;9.80;43.77
15674;BME280;7937;48.090;16.212;2023-04-26T15:50:04;97634.53;;;9.56;47.33
15674;BME280;7937;48.090;16.212;2023-04-26T15:53:07;97666.59;;;10.06;44.02
15674;BME280;7937;48.090;16.212;2023-04-26T15:56:13;97672.03;;;10.00;44.10
15674;BME280;7937;48.090;16.212;2023-04-26T15:59:16;97665.59;;;9.96;45.84
15674;BME280;7937;48.090;16.212;2023-04-26T16:02:19;97672.38;;;10.03;44.05
15674;BME280;7937;48.090;16.212;2023-04-26T16:05:21;97667.56;;;10.00;42.96
15674;BME280;7937;48.090;16.212;2023-04-26T16:08:23;97669.38;;;10.00;42.77
15674;BME280;7937;48.090;16.212;2023-04-26T16:11:41;97673.19;;;10.04;42.40
15674;BME280;7937;48.090;16.212;2023-04-26T16:14:43;97674.06;;;9.93;44.89
15674;BME280;7937;48.090;16.212;2023-04-26T16:17:46;97677.66;;;9.87;42.89
15674;BME280;7937;48.090;16.212;2023-04-26T16:20:48;97677.78;;;9.80;42.85
15674;BME280;7937;48.090;16.212;2023-04-26T16:23:51;97676.97;;;9.79;43.46
15674;BME280;7937;48.090;16.212;2023-04-26T16:26:54;97676.75;;;9.81;42.96
15674;BME280;7937;48.090;16.212;2023-04-26T16:29:56;97684.16;;;9.79;43.47
15674;BME280;7937;48.090;16.212;2023-04-26T16:33:03;97648.72;;;9.62;45.22
15674;BME280;7937;48.090;16.212;2023-04-26T16:36:10;97678.84;;;9.79;43.56
15674;BME280;7937;48.090;16.212;2023-04-26T16:39:13;97679.53;;;9.86;42.29